createdAt,value
2019-02-20T00:01:59.207Z,6.30
2019-02-20T00:04:30.402Z,6.30
2019-02-20T00:07:01.195Z,6.30
2019-02-20T00:09:29.743Z,6.20
2019-02-20T00:11:58.456Z,6.10
2019-02-20T00:14:27.065Z,6.10
2019-02-20T00:16:55.827Z,6.00
2019-02-20T00:19:27.177Z,5.90
2019-02-20T00:21:56.367Z,5.80
2019-02-20T00:24:24.906Z,5.80
2019-02-20T00:26:53.481Z,5.80
2019-02-20T00:29:22.045Z,5.80
2019-02-20T00:31:57.019Z,5.70
2019-02-20T00:34:30.713Z,5.60
2019-02-20T00:36:59.328Z,5.70
2019-02-20T00:39:27.887Z,5.70
2019-02-20T00:41:56.539Z,5.60
2019-02-20T00:44:26.675Z,5.60
2019-02-20T00:46:56.924Z,5.60
2019-02-20T00:49:27.062Z,5.60
2019-02-20T00:52:03.246Z,5.60
2019-02-20T00:54:33.503Z,5.50
2019-02-20T00:57:02.008Z,5.60
2019-02-20T00:59:30.718Z,5.70
2019-02-20T01:01:59.610Z,5.80
2019-02-20T01:04:28.170Z,5.70
2019-02-20T01:07:01.160Z,5.70
2019-02-20T01:09:27.305Z,5.60
2019-02-20T01:11:55.799Z,5.60
2019-02-20T01:14:27.564Z,5.80
2019-02-20T01:16:56.567Z,5.70
2019-02-20T01:19:25.143Z,5.50
2019-02-20T01:21:53.748Z,5.60
2019-02-20T01:24:22.749Z,5.50
2019-02-20T01:26:53.157Z,5.40
2019-02-20T01:29:22.020Z,5.20
2019-02-20T01:31:53.323Z,5.10
2019-02-20T01:34:33.629Z,4.90
2019-02-20T01:37:02.162Z,4.90
2019-02-20T01:39:31.127Z,4.80
2019-02-20T01:42:03.349Z,4.80
2019-02-20T01:44:35.095Z,4.80
2019-02-20T01:47:06.515Z,4.90
2019-02-20T01:49:35.047Z,4.90
2019-02-20T01:52:03.785Z,5.00
2019-02-20T01:54:32.279Z,5.00
2019-02-20T01:57:04.793Z,5.00
2019-02-20T01:59:33.527Z,4.80
2019-02-20T02:02:02.082Z,4.80
2019-02-20T02:04:30.769Z,4.70
2019-02-20T02:06:59.573Z,4.70
2019-02-20T02:09:28.139Z,4.70
2019-02-20T02:11:59.594Z,4.70
2019-02-20T02:14:28.280Z,4.60
2019-02-20T02:16:56.897Z,4.70
2019-02-20T02:19:25.517Z,4.70
2019-02-20T02:21:54.757Z,4.70
2019-02-20T02:24:23.431Z,4.90
2019-02-20T02:26:55.191Z,4.90
2019-02-20T02:29:24.119Z,5.00
2019-02-20T02:31:52.917Z,4.90
2019-02-20T02:34:23.844Z,4.90
2019-02-20T02:36:54.241Z,4.90
2019-02-20T02:39:22.925Z,4.80
2019-02-20T02:41:51.611Z,4.80
2019-02-20T02:44:20.347Z,4.80
2019-02-20T02:46:49.192Z,4.80
2019-02-20T02:49:17.764Z,4.80
2019-02-20T02:51:46.386Z,4.70
2019-02-20T02:54:18.148Z,4.70
2019-02-20T02:56:46.696Z,4.60
2019-02-20T02:59:15.216Z,4.60
2019-02-20T03:01:43.951Z,4.60
2019-02-20T03:04:12.546Z,4.60
2019-02-20T03:06:41.339Z,4.60
2019-02-20T03:09:10.096Z,4.70
2019-02-20T03:14:42.767Z,4.70
2019-02-20T03:17:11.249Z,4.50
2019-02-20T03:19:39.786Z,4.40
2019-02-20T03:22:08.265Z,4.30
2019-02-20T03:24:37.078Z,4.30
2019-02-20T03:27:05.839Z,4.30
2019-02-20T03:29:45.666Z,4.10
2019-02-20T03:32:19.307Z,4.00
2019-02-20T03:34:47.890Z,4.00
2019-02-20T03:37:16.602Z,3.90
2019-02-20T03:39:45.180Z,3.80
2019-02-20T03:42:13.794Z,3.70
2019-02-20T03:44:42.376Z,3.70
2019-02-20T03:47:10.972Z,3.50
2019-02-20T03:49:39.569Z,3.60
2019-02-20T03:52:08.212Z,3.70
2019-02-20T03:54:37.300Z,3.70
2019-02-20T03:57:09.321Z,3.80
2019-02-20T03:59:38.039Z,3.90
2019-02-20T04:02:13.386Z,3.90
2019-02-20T04:04:43.210Z,4.00
2019-02-20T04:07:11.863Z,4.10
2019-02-20T04:09:40.418Z,4.00
2019-02-20T04:12:09.039Z,4.10
2019-02-20T04:14:37.732Z,4.10
2019-02-20T04:17:06.338Z,4.00
2019-02-20T04:19:35.158Z,4.00
2019-02-20T04:22:06.967Z,4.10
2019-02-20T04:24:35.580Z,4.20
2019-02-20T04:27:04.292Z,4.20
2019-02-20T04:29:35.519Z,4.20
2019-02-20T04:32:04.289Z,4.20
2019-02-20T04:34:33.073Z,4.20
2019-02-20T04:37:01.622Z,4.30
2019-02-20T04:39:30.353Z,4.40
2019-02-20T04:41:59.040Z,4.50
2019-02-20T04:44:27.613Z,4.50
2019-02-20T04:46:56.224Z,4.50
2019-02-20T04:49:24.718Z,4.60
2019-02-20T04:51:53.311Z,4.60
2019-02-20T04:54:21.919Z,4.70
2019-02-20T04:56:50.593Z,4.80
2019-02-20T04:59:19.114Z,4.90
2019-02-20T05:01:47.610Z,5.00
2019-02-20T05:04:16.174Z,5.20
2019-02-20T05:06:44.759Z,5.40
2019-02-20T05:09:13.277Z,5.40
2019-02-20T05:11:41.829Z,5.50
2019-02-20T05:14:10.382Z,5.50
2019-02-20T05:16:39.009Z,5.60
2019-02-20T05:19:07.536Z,5.70
2019-02-20T05:21:36.113Z,5.70
2019-02-20T05:24:04.855Z,5.70
2019-02-20T05:26:33.395Z,5.70
2019-02-20T05:29:03.149Z,5.60
2019-02-20T05:31:31.683Z,5.60
2019-02-20T05:34:00.301Z,5.70
2019-02-20T05:36:28.800Z,5.90
2019-02-20T05:38:57.289Z,5.90
2019-02-20T05:41:25.811Z,5.90
2019-02-20T05:43:55.652Z,6.00
2019-02-20T05:46:24.099Z,6.00
2019-02-20T05:48:52.606Z,6.10
2019-02-20T05:51:21.138Z,6.10
2019-02-20T05:53:49.651Z,6.10
2019-02-20T05:56:18.314Z,6.00
2019-02-20T05:58:48.046Z,6.00
2019-02-20T06:01:16.498Z,6.00
2019-02-20T06:03:45.285Z,6.00
2019-02-20T06:06:13.887Z,6.10
2019-02-20T06:08:42.544Z,6.20
2019-02-20T06:11:14.975Z,6.10
2019-02-20T06:13:41.319Z,6.10
2019-02-20T06:16:09.819Z,6.10
2019-02-20T06:18:39.953Z,6.10
2019-02-20T06:21:08.551Z,6.20
2019-02-20T06:23:37.055Z,6.10
2019-02-20T06:26:08.527Z,6.10
2019-02-20T06:28:37.076Z,6.10
2019-02-20T06:31:05.653Z,6.30
2019-02-20T06:33:34.200Z,6.30
2019-02-20T06:36:02.935Z,6.40
2019-02-20T06:38:31.477Z,6.40
2019-02-20T06:40:59.999Z,6.50
2019-02-20T06:43:28.595Z,6.40
2019-02-20T06:45:57.170Z,6.50
2019-02-20T06:48:28.278Z,6.50
2019-02-20T06:51:05.702Z,6.40
2019-02-20T06:53:39.916Z,6.40
2019-02-20T06:56:08.669Z,6.50
2019-02-20T06:58:37.175Z,6.40
2019-02-20T07:01:05.696Z,6.50
2019-02-20T07:03:35.959Z,6.50
2019-02-20T07:06:25.922Z,6.70
2019-02-20T07:09:12.452Z,6.60
2019-02-20T07:11:56.179Z,6.70
2019-02-20T07:14:30.932Z,6.70
2019-02-20T07:17:05.429Z,6.80
2019-02-20T07:19:49.247Z,6.80
2019-02-20T07:22:32.463Z,7.00
2019-02-20T07:25:19.354Z,7.00
2019-02-20T07:28:13.613Z,7.20
2019-02-20T07:30:42.117Z,7.30
2019-02-20T07:33:11.487Z,7.40
2019-02-20T07:35:39.982Z,7.50
2019-02-20T07:38:08.628Z,7.60
2019-02-20T07:40:37.175Z,7.60
2019-02-20T07:43:05.772Z,7.60
2019-02-20T07:45:34.511Z,7.60
2019-02-20T07:48:03.091Z,7.70
2019-02-20T07:50:31.636Z,7.80
2019-02-20T07:53:00.197Z,7.80
2019-02-20T07:55:28.954Z,7.90
2019-02-20T07:57:57.519Z,7.90
2019-02-20T08:00:26.014Z,8.00
2019-02-20T08:02:54.535Z,8.10
2019-02-20T08:05:23.056Z,8.10
2019-02-20T08:07:51.653Z,8.10
2019-02-20T08:10:20.294Z,8.20
2019-02-20T08:12:48.929Z,8.20
2019-02-20T08:15:17.683Z,8.20
2019-02-20T08:17:46.269Z,8.20
2019-02-20T08:20:17.029Z,8.30
2019-02-20T08:22:45.171Z,8.30
2019-02-20T08:25:22.236Z,8.30
2019-02-20T08:27:44.216Z,8.30
2019-02-20T08:30:13.940Z,8.20
2019-02-20T08:32:42.607Z,8.30
2019-02-20T08:35:12.350Z,8.40
2019-02-20T08:37:40.875Z,8.50
2019-02-20T08:40:20.439Z,8.80
2019-02-20T08:42:52.707Z,8.90
2019-02-20T08:45:25.084Z,9.00
2019-02-20T08:47:54.171Z,9.10
2019-02-20T08:50:22.765Z,9.10
2019-02-20T08:52:53.885Z,9.00
2019-02-20T08:55:31.560Z,9.10
2019-02-20T08:57:52.694Z,9.10
2019-02-20T09:00:21.257Z,9.20
2019-02-20T09:02:49.739Z,9.30
2019-02-20T09:05:18.331Z,9.30
2019-02-20T09:07:46.814Z,9.30
2019-02-20T09:10:17.190Z,9.40
2019-02-20T09:12:45.703Z,9.50
2019-02-20T09:15:14.221Z,9.40
2019-02-20T09:17:42.749Z,9.60
2019-02-20T09:20:11.948Z,9.70
2019-02-20T09:22:40.505Z,9.80
2019-02-20T09:25:19.540Z,9.80
2019-02-20T09:27:41.756Z,9.80
2019-02-20T09:30:15.009Z,9.90
2019-02-20T09:32:43.489Z,9.90
2019-02-20T09:35:12.040Z,10.10
2019-02-20T09:37:40.524Z,10.20
2019-02-20T09:40:17.040Z,10.20
2019-02-20T09:42:48.095Z,10.10
2019-02-20T09:45:16.625Z,10.00
2019-02-20T09:47:45.229Z,10.10
2019-02-20T09:50:13.746Z,10.10
2019-02-20T09:52:51.701Z,10.10
2019-02-20T09:55:13.697Z,10.20
2019-02-20T09:57:42.235Z,10.10
2019-02-20T10:00:16.845Z,10.10
2019-02-20T10:02:47.209Z,10.00
2019-02-20T10:05:15.606Z,10.00
2019-02-20T10:07:44.423Z,10.00
2019-02-20T10:10:15.960Z,10.30
2019-02-20T10:12:51.855Z,10.30
2019-02-20T10:15:20.701Z,10.20
2019-02-20T10:17:49.300Z,10.10
2019-02-20T10:20:17.875Z,10.00
2019-02-20T10:22:46.340Z,9.80
2019-02-20T10:25:15.591Z,10.00
2019-02-20T10:27:44.178Z,10.20
2019-02-20T10:30:19.947Z,10.10
2019-02-20T10:32:48.534Z,10.40
2019-02-20T10:35:17.040Z,10.60
2019-02-20T10:37:45.608Z,10.80
2019-02-20T10:40:14.186Z,10.90
2019-02-20T10:42:42.692Z,10.80
2019-02-20T10:45:14.371Z,11.10
2019-02-20T10:47:43.047Z,11.20
2019-02-20T10:50:12.658Z,11.40
2019-02-20T10:52:41.228Z,11.40
2019-02-20T10:55:10.183Z,11.60
2019-02-20T10:57:38.829Z,11.60
2019-02-20T11:00:23.540Z,11.80
2019-02-20T11:02:46.728Z,11.80
2019-02-20T11:05:15.233Z,12.10
2019-02-20T11:07:43.755Z,12.00
2019-02-20T11:10:12.324Z,11.70
2019-02-20T11:12:40.850Z,11.40
2019-02-20T11:15:09.600Z,11.30
2019-02-20T11:17:38.214Z,11.30
2019-02-20T11:20:09.580Z,11.30
2019-02-20T11:22:39.187Z,12.00
2019-02-20T11:25:10.287Z,12.30
2019-02-20T11:27:39.590Z,12.80
2019-02-20T11:30:23.670Z,12.80
2019-02-20T11:32:52.185Z,12.60
2019-02-20T11:35:20.679Z,12.40
2019-02-20T11:37:49.194Z,12.50
2019-02-20T11:40:17.727Z,12.40
2019-02-20T11:42:50.042Z,12.30
2019-02-20T11:45:18.552Z,12.60
2019-02-20T11:47:47.059Z,13.00
2019-02-20T11:50:15.561Z,13.40
2019-02-20T11:52:44.075Z,13.40
2019-02-20T11:55:13.983Z,13.20
2019-02-20T11:57:42.476Z,13.70
2019-02-20T12:00:18.596Z,13.80
2019-02-20T12:02:47.107Z,14.00
2019-02-20T12:05:15.593Z,14.30
2019-02-20T12:07:44.179Z,14.70
2019-02-20T12:10:15.477Z,14.80
2019-02-20T12:12:43.991Z,14.80
2019-02-20T12:15:13.692Z,14.70
2019-02-20T12:17:42.294Z,14.90
2019-02-20T12:20:10.947Z,14.90
2019-02-20T12:22:39.441Z,14.90
2019-02-20T12:25:10.215Z,14.80
2019-02-20T12:27:38.739Z,14.70
2019-02-20T12:30:10.511Z,14.50
2019-02-20T12:32:40.133Z,14.50
2019-02-20T12:35:10.700Z,14.40
2019-02-20T12:37:39.233Z,14.10
2019-02-20T12:40:14.361Z,14.10
2019-02-20T12:42:42.872Z,14.20
2019-02-20T12:45:11.386Z,14.50
2019-02-20T12:47:39.910Z,14.80
2019-02-20T12:50:12.837Z,14.70
2019-02-20T12:52:41.657Z,14.70
2019-02-20T12:55:20.380Z,14.90
2019-02-20T13:00:50.790Z,14.50
2019-02-20T13:03:19.338Z,14.90
2019-02-20T13:05:58.910Z,15.00
2019-02-20T13:08:37.580Z,15.10
2019-02-20T13:11:22.447Z,15.10
2019-02-20T13:14:02.909Z,15.10
2019-02-20T13:16:38.858Z,15.10
2019-02-20T13:19:13.814Z,14.90
2019-02-20T13:21:42.571Z,14.90
2019-02-20T13:24:11.257Z,14.70
2019-02-20T13:26:42.038Z,14.80
2019-02-20T13:29:20.556Z,15.20
2019-02-20T13:32:04.691Z,15.70
2019-02-20T13:34:34.375Z,15.60
2019-02-20T13:37:03.113Z,15.50
2019-02-20T13:39:31.819Z,15.20
2019-02-20T13:42:00.463Z,14.80
2019-02-20T13:44:29.008Z,14.90
2019-02-20T13:46:57.870Z,15.60
2019-02-20T13:49:26.382Z,16.20
2019-02-20T13:51:54.954Z,16.30
2019-02-20T13:54:23.441Z,15.80
2019-02-20T13:56:52.546Z,16.00
2019-02-20T13:59:21.075Z,16.10
2019-02-20T14:01:49.769Z,15.80
2019-02-20T14:04:29.354Z,15.80
2019-02-20T14:06:59.695Z,16.00
2019-02-20T14:09:29.662Z,16.50
2019-02-20T14:11:58.169Z,16.60
2019-02-20T14:14:26.699Z,16.60
2019-02-20T14:16:57.401Z,16.50
2019-02-20T14:19:25.883Z,16.50
2019-02-20T14:21:54.407Z,16.60
2019-02-20T14:24:22.903Z,16.80
2019-02-20T14:26:51.419Z,16.20
2019-02-20T14:29:20.024Z,16.10
2019-02-20T14:31:50.663Z,16.40
2019-02-20T14:34:18.851Z,16.50
2019-02-20T14:36:47.766Z,16.20
2019-02-20T14:39:18.026Z,16.30
2019-02-20T14:41:46.992Z,16.50
2019-02-20T14:44:15.619Z,16.90
2019-02-20T14:46:44.278Z,17.20
2019-02-20T14:49:13.289Z,16.90
2019-02-20T14:51:41.847Z,16.60
2019-02-20T14:54:10.419Z,16.60
2019-02-20T14:56:39.106Z,16.90
2019-02-20T14:59:07.943Z,16.50
2019-02-20T15:01:36.633Z,16.40
2019-02-20T15:04:05.275Z,16.20
2019-02-20T15:06:33.911Z,16.00
2019-02-20T15:09:02.469Z,16.00
2019-02-20T15:11:30.994Z,16.00
2019-02-20T15:13:59.599Z,15.90
2019-02-20T15:16:28.404Z,15.70
2019-02-20T15:18:56.941Z,15.80
2019-02-20T15:21:25.786Z,15.80
2019-02-20T15:23:54.467Z,15.50
2019-02-20T15:26:23.029Z,15.00
2019-02-20T15:28:51.646Z,15.50
2019-02-20T15:31:21.394Z,15.70
2019-02-20T15:33:51.643Z,15.50
2019-02-20T15:36:20.291Z,15.70
2019-02-20T15:38:49.010Z,15.90
2019-02-20T15:41:17.632Z,15.30
2019-02-20T15:43:46.305Z,14.80
2019-02-20T15:46:15.025Z,14.40
2019-02-20T15:48:43.649Z,14.30
2019-02-20T15:51:12.268Z,14.10
2019-02-20T15:53:40.969Z,13.90
2019-02-20T15:56:09.619Z,13.60
2019-02-20T15:58:42.637Z,13.50
2019-02-20T16:01:14.501Z,13.50
2019-02-20T16:03:43.086Z,13.40
2019-02-20T16:06:11.593Z,13.40
2019-02-20T16:08:41.768Z,13.50
2019-02-20T16:11:10.359Z,13.20
2019-02-20T16:13:38.973Z,12.90
2019-02-20T16:16:07.494Z,12.70
2019-02-20T16:18:39.048Z,12.60
2019-02-20T16:21:07.559Z,12.30
2019-02-20T16:23:36.074Z,12.30
2019-02-20T16:26:04.739Z,12.20
2019-02-20T16:28:34.039Z,12.20
2019-02-20T16:31:02.961Z,12.00
2019-02-20T16:33:31.484Z,11.90
2019-02-20T16:36:00.150Z,11.90
2019-02-20T16:38:28.658Z,11.80
2019-02-20T16:40:57.685Z,11.80
2019-02-20T16:43:26.237Z,11.80
2019-02-20T16:45:54.844Z,11.80
2019-02-20T16:48:26.360Z,11.70
2019-02-20T16:50:54.936Z,11.60
2019-02-20T16:53:23.444Z,11.40
2019-02-20T16:55:51.993Z,11.40
2019-02-20T16:58:20.633Z,11.20
2019-02-20T17:00:50.313Z,11.20
2019-02-20T17:03:18.808Z,11.00
2019-02-20T17:05:48.607Z,10.90
2019-02-20T17:08:17.375Z,10.80
2019-02-20T17:10:45.861Z,10.80
2019-02-20T17:13:14.924Z,10.80
2019-02-20T17:15:43.487Z,10.70
2019-02-20T17:18:11.996Z,10.50
2019-02-20T17:20:40.615Z,10.50
2019-02-20T17:23:09.182Z,10.50
2019-02-20T17:25:37.673Z,10.40
2019-02-20T17:28:06.271Z,10.30
2019-02-20T17:30:34.776Z,10.30
2019-02-20T17:33:03.282Z,10.20
2019-02-20T17:35:31.789Z,10.10
2019-02-20T17:38:00.281Z,10.20
2019-02-20T17:40:28.883Z,10.20
2019-02-20T17:42:57.370Z,10.30
2019-02-20T17:45:26.454Z,10.30
2019-02-20T17:47:55.011Z,10.20
2019-02-20T17:50:24.936Z,10.20
2019-02-20T17:52:53.458Z,10.10
2019-02-20T17:55:21.989Z,10.00
2019-02-20T17:57:50.539Z,9.90
2019-02-20T18:00:21.092Z,9.80
2019-02-20T18:02:49.581Z,9.80
2019-02-20T18:05:18.111Z,9.70
2019-02-20T18:07:49.689Z,9.70
2019-02-20T18:10:16.751Z,9.60
2019-02-20T18:12:45.260Z,9.50
2019-02-20T18:15:16.168Z,9.50
2019-02-20T18:17:44.697Z,9.50
2019-02-20T18:20:13.198Z,9.50
2019-02-20T18:22:43.625Z,9.50
2019-02-20T18:25:12.469Z,9.40
2019-02-20T18:27:43.832Z,9.30
2019-02-20T18:30:14.696Z,9.20
2019-02-20T18:32:43.222Z,9.20
2019-02-20T18:35:13.210Z,9.10
2019-02-20T18:37:41.751Z,9.10
2019-02-20T18:40:12.166Z,9.00
2019-02-20T18:42:40.694Z,9.00
2019-02-20T18:45:11.884Z,9.00
2019-02-20T18:47:40.418Z,8.90
2019-02-20T18:50:11.369Z,8.90
2019-02-20T18:52:39.943Z,8.80
2019-02-20T18:55:13.353Z,8.90
2019-02-20T18:57:41.850Z,8.80
2019-02-20T19:00:15.782Z,8.80
2019-02-20T19:02:43.583Z,8.70
2019-02-20T19:05:12.348Z,8.70
2019-02-20T19:07:40.916Z,8.70
2019-02-20T19:10:15.207Z,8.60
2019-02-20T19:13:02.153Z,8.70
2019-02-20T19:15:49.374Z,8.70
2019-02-20T19:18:36.180Z,8.70
2019-02-20T19:21:13.955Z,8.60
2019-02-20T19:24:11.461Z,8.60
2019-02-20T19:27:04.374Z,8.60
2019-02-20T19:29:54.384Z,8.60
2019-02-20T19:32:41.303Z,8.60
2019-02-20T19:35:25.201Z,8.40
2019-02-20T19:38:31.802Z,8.50
2019-02-20T19:41:23.223Z,8.40
2019-02-20T19:44:10.025Z,8.30
2019-02-20T19:47:09.214Z,8.20
2019-02-20T19:49:41.105Z,8.30
2019-02-20T19:52:28.041Z,8.30
2019-02-20T19:55:18.230Z,8.30
2019-02-20T19:58:02.080Z,8.30
2019-02-20T20:00:51.935Z,8.30
2019-02-20T20:03:23.743Z,8.30
2019-02-20T20:06:01.745Z,8.30
2019-02-20T20:08:45.526Z,8.30
2019-02-20T20:11:29.396Z,8.30
2019-02-20T20:14:25.740Z,8.20
2019-02-20T20:17:06.314Z,8.20
2019-02-20T20:19:49.917Z,8.10
2019-02-20T20:22:33.739Z,8.00
2019-02-20T20:25:14.607Z,7.90
2019-02-20T20:28:01.469Z,7.90
2019-02-20T20:30:51.546Z,7.90
2019-02-20T20:33:32.252Z,7.80
2019-02-20T20:36:22.032Z,7.70
2019-02-20T20:39:11.938Z,7.70
2019-02-20T20:42:06.202Z,7.60
2019-02-20T20:44:38.005Z,7.60
2019-02-20T20:47:29.404Z,7.60
2019-02-20T20:50:10.080Z,7.50
2019-02-20T20:52:54.038Z,7.50
2019-02-20T20:55:34.903Z,7.50
2019-02-20T20:58:23.401Z,7.40
2019-02-20T21:00:58.168Z,7.40
2019-02-20T21:03:29.354Z,7.40
2019-02-20T21:06:19.171Z,7.30
2019-02-20T21:08:50.971Z,7.30
2019-02-20T21:11:51.085Z,7.30
2019-02-20T21:14:29.084Z,7.20
2019-02-20T21:17:03.870Z,7.10
2019-02-20T21:19:41.829Z,7.10
2019-02-20T21:22:19.803Z,7.10
2019-02-20T21:24:51.688Z,7.10
2019-02-20T21:27:32.494Z,7.10
2019-02-20T21:30:13.636Z,7.10
2019-02-20T21:33:00.574Z,7.10
2019-02-20T21:35:44.340Z,7.10
2019-02-20T21:38:32.667Z,7.10
2019-02-20T21:41:07.277Z,7.00
2019-02-20T21:43:39.030Z,7.00
2019-02-20T21:46:25.921Z,7.00
2019-02-20T21:49:13.015Z,7.00
2019-02-20T21:52:01.502Z,7.00
2019-02-20T21:54:33.251Z,7.00
2019-02-20T21:57:13.681Z,7.00
2019-02-20T22:00:12.757Z,7.00
2019-02-20T22:03:02.686Z,7.00
2019-02-20T22:05:49.313Z,7.00
2019-02-20T22:08:46.935Z,6.90
2019-02-20T22:11:50.629Z,6.90
2019-02-20T22:14:34.365Z,6.80
2019-02-20T22:17:28.345Z,6.80
2019-02-20T22:20:03.085Z,6.70
2019-02-20T22:22:43.897Z,6.70
2019-02-20T22:25:15.647Z,6.70
2019-02-20T22:27:53.530Z,6.70
2019-02-20T22:30:31.395Z,6.70
2019-02-20T22:33:21.436Z,6.70
2019-02-20T22:36:09.692Z,6.70
2019-02-20T22:38:48.408Z,6.60
2019-02-20T22:41:26.476Z,6.60
2019-02-20T22:44:15.125Z,6.60
2019-02-20T22:46:46.949Z,6.70
2019-02-20T22:49:18.708Z,6.70
2019-02-20T22:51:53.137Z,6.70
2019-02-20T22:54:30.999Z,6.80
2019-02-20T22:57:25.563Z,6.70
2019-02-20T23:00:02.074Z,6.70
2019-02-20T23:02:33.652Z,6.60
2019-02-20T23:05:26.328Z,6.60
2019-02-20T23:08:01.306Z,6.50
2019-02-20T23:10:48.357Z,6.50
2019-02-20T23:13:26.049Z,6.60
2019-02-20T23:15:54.531Z,6.70
2019-02-20T23:18:23.013Z,6.70
2019-02-20T23:20:51.542Z,6.70
2019-02-20T23:23:20.034Z,6.70
2019-02-20T23:25:48.516Z,6.70
2019-02-20T23:28:17.024Z,6.50
2019-02-20T23:30:45.514Z,6.40
2019-02-20T23:33:14.003Z,6.40
2019-02-20T23:35:42.668Z,6.30
2019-02-20T23:38:11.215Z,6.30
2019-02-20T23:40:39.692Z,6.30
2019-02-20T23:43:08.168Z,6.40
2019-02-20T23:45:36.670Z,6.30
2019-02-20T23:48:05.156Z,6.30
2019-02-20T23:50:33.659Z,6.20
2019-02-20T23:53:02.162Z,6.20
2019-02-20T23:55:30.694Z,6.10
2019-02-20T23:57:59.212Z,6.10
